Concerto — JJ3855 — position and weather

sailwx.info

Track history (hours):
 
Tides and Currents Weather Stations Pressure Air Temp Water Temp Dewpoint Dewpoint Depression Visibility Wind Speed Wind Dir Waves Ship Positions

Concerto

Last reported at 2017-Sep-21 03:00 UTC. Time now 2017-Sep-21 03:07 UTC.
Position N 34°41' E 135°11'.

Length 74 m; draft 3 m.

Type: Passenger vessel. MMSI: 431000448.

Date/timePositionNaut miles runAvg speedWind from/ knotsBaromVisibWave heightAir tempDewpointWater temp
2017-Sep-21 03:00N 34°41' E 135°11'0 0.0
2017-Sep-21 02:30N 34°41' E 135°11'0 0.0
2017-Sep-21 02:00N 34°41' E 135°11'0 0.0
2017-Sep-21 01:25N 34°41' E 135°11'0 0.0
2017-Sep-21 01:01N 34°41' E 135°11'0 0.0
2017-Sep-21 00:31N 34°41' E 135°11'0 0.0
2017-Sep-21 00:00N 34°41' E 135°11'0 0.0
2017-Sep-20 23:31N 34°41' E 135°11'0 0.0
2017-Sep-20 22:49N 34°41' E 135°11'0 0.0
2017-Sep-20 22:30N 34°41' E 135°11'0 0.0
2017-Sep-20 22:00N 34°41' E 135°11'0 0.0
2017-Sep-20 21:24N 34°41' E 135°11'0 0.0
2017-Sep-20 21:00N 34°41' E 135°11'0 0.0
2017-Sep-20 20:30N 34°41' E 135°11'0 0.0
2017-Sep-20 20:00N 34°41' E 135°11'0 0.0
2017-Sep-20 19:30N 34°41' E 135°11'0 0.0
2017-Sep-20 18:49N 34°41' E 135°11'0 0.0
2017-Sep-20 18:30N 34°41' E 135°11'0 0.0
2017-Sep-20 18:00N 34°41' E 135°11'0 0.0
2017-Sep-20 17:25N 34°41' E 135°11'0 0.0
2017-Sep-20 17:00N 34°41' E 135°11'0 0.0
2017-Sep-20 16:30N 34°41' E 135°11'0 0.0
2017-Sep-20 16:01N 34°41' E 135°11'0 0.0
2017-Sep-20 15:24N 34°41' E 135°11'0 0.0
2017-Sep-20 14:54N 34°41' E 135°11'0 0.0
2017-Sep-20 14:00N 34°41' E 135°11'0 0.0
2017-Sep-20 13:30N 34°41' E 135°11'0 0.0
2017-Sep-20 13:00N 34°41' E 135°11'0 0.0
2017-Sep-20 12:30N 34°41' E 135°11'0 0.1
2017-Sep-20 12:00N 34°41' E 135°11'3 6.5
2017-Sep-20 11:30N 34°38' E 135°10'3 6.1
2017-Sep-20 11:00N 34°37' E 135°06'3 5.7
2017-Sep-20 10:30N 34°38' E 135°10'3 6.3
2017-Sep-20 10:00N 34°41' E 135°11'0 0.0
2017-Sep-20 09:29N 34°41' E 135°11'2 4.4
2017-Sep-20 09:00N 34°39' E 135°11'3 6.9
2017-Sep-20 08:30N 34°37' E 135°07'4 8.0
2017-Sep-20 08:00N 34°40' E 135°11'1 2.2
2017-Sep-20 07:26N 34°41' E 135°11'0 0.0
2017-Sep-20 06:56N 34°41' E 135°11'3 6.0
2017-Sep-20 06:30N 34°38' E 135°11'1 1.8
2017-Sep-20 06:00N 34°38' E 135°10'3 5.9
2017-Sep-20 05:30N 34°41' E 135°11'0 0.0
2017-Sep-20 04:50N 34°41' E 135°11'2 6.0
2017-Sep-20 04:31N 34°39' E 135°11'4 8.2
2017-Sep-20 04:01N 34°37' E 135°07'3 5.3
2017-Sep-20 03:31N 34°38' E 135°10'3 5.4
2017-Sep-20 03:00N 34°41' E 135°11'0 0.0
2017-Sep-20 02:27N 34°41' E 135°11'0 0.0
2017-Sep-20 01:57N 34°41' E 135°11'0 0.0
2017-Sep-20 01:27N 34°41' E 135°11'0 0.0
2017-Sep-20 00:57N 34°41' E 135°11'0 0.0
2017-Sep-20 00:27N 34°41' E 135°11'0 0.0
2017-Sep-19 23:57N 34°41' E 135°11'0 0.0
2017-Sep-19 23:27N 34°41' E 135°11'0 0.0
2017-Sep-19 22:57N 34°41' E 135°11'0 0.0
2017-Sep-19 22:27N 34°41' E 135°11'0 0.0
2017-Sep-19 21:57N 34°41' E 135°11'0 0.0
2017-Sep-19 21:27N 34°41' E 135°11'0 0.0
2017-Sep-19 20:57N 34°41' E 135°11'0 0.0
2017-Sep-19 20:27N 34°41' E 135°11'0 0.0
2017-Sep-19 19:57N 34°41' E 135°11'0 0.0
2017-Sep-19 19:27N 34°41' E 135°11'0 0.0
2017-Sep-19 18:51N 34°41' E 135°11'0 0.0
2017-Sep-19 18:27N 34°41' E 135°11'0 0.0
2017-Sep-19 17:57N 34°41' E 135°11'0 0.0
2017-Sep-19 17:27N 34°41' E 135°11'0 0.0
2017-Sep-19 16:57N 34°41' E 135°11'0 0.0
2017-Sep-19 16:27N 34°41' E 135°11'0 0.0
2017-Sep-19 15:51N 34°41' E 135°11'0 0.0
2017-Sep-19 15:27N 34°41' E 135°11'0 0.0
2017-Sep-19 14:57N 34°41' E 135°11'0 0.0
2017-Sep-19 14:03N 34°41' E 135°11'0 0.0
2017-Sep-19 13:57N 34°41' E 135°11'0 0.0
2017-Sep-19 13:27N 34°41' E 135°11'0 0.0
2017-Sep-19 12:57N 34°41' E 135°11'0 0.0
2017-Sep-19 12:07N 34°41' E 135°11'0 2.6
2017-Sep-19 12:00N 34°41' E 135°11'4 7.1
2017-Sep-19 11:30N 34°37' E 135°09'4 8.1
2017-Sep-19 11:01N 34°37' E 135°05'4 8.3
2017-Sep-19 10:30N 34°38' E 135°09'3 6.0
2017-Sep-19 10:00N 34°41' E 135°11'0 0.0
2017-Sep-19 09:28N 34°41' E 135°11'3 6.2
2017-Sep-19 09:00N 34°38' E 135°11'3 5.6
2017-Sep-19 08:30N 34°37' E 135°08'4 8.0
2017-Sep-19 08:00N 34°39' E 135°11'1 2.4
2017-Sep-19 07:26N 34°41' E 135°11'0 0.0
2017-Sep-19 06:53N 34°41' E 135°11'3 7.0
2017-Sep-19 06:30N 34°38' E 135°11'1 2.3
2017-Sep-19 06:00N 34°38' E 135°10'3 5.5
2017-Sep-19 05:30N 34°41' E 135°11'0 0.0
2017-Sep-19 04:58N 34°41' E 135°11'2 3.6
2017-Sep-19 04:30N 34°39' E 135°11'4 7.0
2017-Sep-19 04:00N 34°37' E 135°08'2 4.0
2017-Sep-19 03:30N 34°38' E 135°10'3 5.7
2017-Sep-19 03:00N 34°41' E 135°11'0 0.0
2017-Sep-19 02:26N 34°41' E 135°11'0 0.0
2017-Sep-19 01:32N 34°41' E 135°11'0 0.0
2017-Sep-19 01:26N 34°41' E 135°11'0 0.0
2017-Sep-19 00:56N 34°41' E 135°11'0 0.0
2017-Sep-19 00:26N 34°41' E 135°11'0 0.0
2017-Sep-18 23:56N 34°41' E 135°11'0 0.0
2017-Sep-18 23:26N 34°41' E 135°11'0 0.0
2017-Sep-18 22:56N 34°41' E 135°11'0 0.0
2017-Sep-18 22:20N 34°41' E 135°11'0 0.0
2017-Sep-18 21:56N 34°41' E 135°11'0 0.0
2017-Sep-18 20:32N 34°41' E 135°11'0 0.0
2017-Sep-18 20:20N 34°41' E 135°11'0 0.0
2017-Sep-18 19:56N 34°41' E 135°11'0 0.0
2017-Sep-18 19:26N 34°41' E 135°11'0 0.0
2017-Sep-18 18:56N 34°41' E 135°11'0 0.0
2017-Sep-18 18:26N 34°41' E 135°11'0 0.0
2017-Sep-18 17:56N 34°41' E 135°11'0 0.0
2017-Sep-18 17:26N 34°41' E 135°11'0 0.0
2017-Sep-18 16:56N 34°41' E 135°11'0 0.0
2017-Sep-18 16:26N 34°41' E 135°11'0 0.0
2017-Sep-18 15:56N 34°41' E 135°11'0 0.0
2017-Sep-18 15:26N 34°41' E 135°11'0 0.0
2017-Sep-18 14:56N 34°41' E 135°11'0 0.0
2017-Sep-18 14:20N 34°41' E 135°11'0 0.0
2017-Sep-18 13:56N 34°41' E 135°11'0 0.0
2017-Sep-18 13:26N 34°41' E 135°11'0 0.0
2017-Sep-18 12:56N 34°41' E 135°11'0 0.0
2017-Sep-18 12:26N 34°41' E 135°11'0 0.4
2017-Sep-18 12:00N 34°41' E 135°11'4 7.2
2017-Sep-18 11:30N 34°37' E 135°09'4 7.3
2017-Sep-18 11:01N 34°37' E 135°05'4 7.4
2017-Sep-18 10:30N 34°38' E 135°09'3 6.5
2017-Sep-18 10:01N 34°41' E 135°11'0 0.0
2017-Sep-18 09:26N 34°41' E 135°11'2 5.4
2017-Sep-18 09:01N 34°39' E 135°11'4 7.3
2017-Sep-18 08:31N 34°37' E 135°07'4 8.2
2017-Sep-18 08:01N 34°39' E 135°11'1 2.7
2017-Sep-18 07:28N 34°41' E 135°11'0 0.0
2017-Sep-18 06:56N 34°41' E 135°11'3 6.5
2017-Sep-18 06:30N 34°38' E 135°11'1 1.2
2017-Sep-18 06:00N 34°38' E 135°10'3 6.1
2017-Sep-18 05:30N 34°41' E 135°11'0 0.0
2017-Sep-18 05:00N 34°41' E 135°11'2 4.0
2017-Sep-18 04:30N 34°39' E 135°11'4 7.7
2017-Sep-18 04:00N 34°37' E 135°07'2 4.9
2017-Sep-18 03:30N 34°38' E 135°10'3 5.6
2017-Sep-18 03:00N 34°41' E 135°11'0 0.0
2017-Sep-18 02:22N 34°41' E 135°11'0 0.0
2017-Sep-18 01:46N 34°41' E 135°11'0 0.0
2017-Sep-18 01:28N 34°41' E 135°11'0 0.0
2017-Sep-18 00:52N 34°41' E 135°11'0 0.0
2017-Sep-18 00:28N 34°41' E 135°11'0 0.0
2017-Sep-17 23:58N 34°41' E 135°11'0 0.0
2017-Sep-17 23:28N 34°41' E 135°11'0 0.0
2017-Sep-17 22:56N 34°41' E 135°11'2 5.5
2017-Sep-17 22:30N 34°38' E 135°11'4 7.9
2017-Sep-17 22:00N 34°35' E 135°13'4 7.2
2017-Sep-17 21:30N 34°32' E 135°15'4 7.6
2017-Sep-17 21:00N 34°28' E 135°16'1 0.9
2017-Sep-17 20:06N 34°28' E 135°17'0 0.0
2017-Sep-17 18:57N 34°28' E 135°17'0 0.0
2017-Sep-17 17:41N 34°28' E 135°17'0 0.0
2017-Sep-17 16:23N 34°28' E 135°17'0 0.1
2017-Sep-17 15:53N 34°28' E 135°17'0 0.0
2017-Sep-17 15:23N 34°28' E 135°17'0 0.0
2017-Sep-17 14:35N 34°28' E 135°17'0 0.0
2017-Sep-17 14:17N 34°28' E 135°17'0 0.0
2017-Sep-17 12:05N 34°28' E 135°17'0 0.1
2017-Sep-17 11:41N 34°28' E 135°17'0 0.2
2017-Sep-17 11:17N 34°27' E 135°17'0 0.0
2017-Sep-17 10:53N 34°27' E 135°17'0 0.0
2017-Sep-17 10:29N 34°27' E 135°17'0 0.0
2017-Sep-17 09:59N 34°27' E 135°17'0 0.0
2017-Sep-17 09:30N 34°27' E 135°17'0 0.0
2017-Sep-17 08:59N 34°27' E 135°17'0 0.0
2017-Sep-17 08:17N 34°27' E 135°17'0 0.1
2017-Sep-17 07:59N 34°27' E 135°17'0 0.0
2017-Sep-17 07:29N 34°27' E 135°17'0 0.0
2017-Sep-17 06:59N 34°27' E 135°17'0 0.0
2017-Sep-17 06:29N 34°27' E 135°17'0 0.0
2017-Sep-17 05:51N 34°27' E 135°17'0 0.0
2017-Sep-17 05:29N 34°27' E 135°17'0 0.0
2017-Sep-17 04:59N 34°27' E 135°17'0 0.0
2017-Sep-17 04:29N 34°27' E 135°17'0 0.0
2017-Sep-17 03:59N 34°27' E 135°17'0 0.0
2017-Sep-17 03:29N 34°27' E 135°17'0 0.0
2017-Sep-17 02:59N 34°27' E 135°17'0 0.0
2017-Sep-17 02:23N 34°27' E 135°17'0 0.0
2017-Sep-17 01:59N 34°27' E 135°17'0 0.0
2017-Sep-17 01:23N 34°27' E 135°17'0 0.0
2017-Sep-17 00:59N 34°27' E 135°17'0 0.0
2017-Sep-17 00:23N 34°27' E 135°17'0 0.0
2017-Sep-16 23:59N 34°27' E 135°17'0 0.0
2017-Sep-16 23:29N 34°27' E 135°17'0 0.0
2017-Sep-16 22:54N 34°27' E 135°17'0 0.0
2017-Sep-16 22:23N 34°27' E 135°17'0 0.1
2017-Sep-16 21:59N 34°27' E 135°17'0 0.0
2017-Sep-16 21:29N 34°27' E 135°17'0 0.0
2017-Sep-16 20:59N 34°27' E 135°17'0 0.0
2017-Sep-16 20:29N 34°27' E 135°17'0 0.0
2017-Sep-16 19:59N 34°27' E 135°17'0 0.0
2017-Sep-16 19:29N 34°27' E 135°17'0 0.0
2017-Sep-16 18:47N 34°27' E 135°17'0 0.0
2017-Sep-16 18:24N 34°27' E 135°17'0 0.0
2017-Sep-16 17:59N 34°27' E 135°17'0 0.0
2017-Sep-16 17:29N 34°27' E 135°17'0 0.0
2017-Sep-16 16:53N 34°27' E 135°17'0 0.0
2017-Sep-16 16:29N 34°27' E 135°17'0 0.0
2017-Sep-16 15:59N 34°27' E 135°17'0 0.0
2017-Sep-16 15:30N 34°27' E 135°17'0 0.2
2017-Sep-16 14:59N 34°28' E 135°17'3 5.3
2017-Sep-16 14:30N 34°29' E 135°14'510.3
2017-Sep-16 14:00N 34°34' E 135°12'510.3
2017-Sep-16 13:30N 34°39' E 135°11'2 3.0
2017-Sep-16 12:57N 34°41' E 135°11'0 0.0
2017-Sep-16 12:27N 34°41' E 135°11'0 0.0
2017-Sep-16 12:00N 34°41' E 135°11'3 5.2
2017-Sep-16 11:30N 34°38' E 135°10'4 8.1
2017-Sep-16 11:00N 34°37' E 135°06'4 7.4
2017-Sep-16 10:30N 34°38' E 135°10'3 5.7
2017-Sep-16 10:00N 34°41' E 135°11'0 0.0
2017-Sep-16 09:27N 34°41' E 135°11'3 6.1
2017-Sep-16 09:00N 34°38' E 135°11'2 3.9
2017-Sep-16 08:30N 34°38' E 135°08'4 8.0
2017-Sep-16 08:00N 34°40' E 135°12'1 1.5
2017-Sep-16 07:30N 34°41' E 135°11'0 0.0
2017-Sep-16 07:00N 34°41' E 135°11'2 4.5
2017-Sep-16 06:30N 34°39' E 135°11'1 2.4
2017-Sep-16 06:00N 34°38' E 135°10'3 6.0
2017-Sep-16 05:30N 34°41' E 135°11'0 0.0
2017-Sep-16 04:53N 34°41' E 135°11'2 5.5
2017-Sep-16 04:30N 34°39' E 135°11'4 7.5
2017-Sep-16 04:00N 34°37' E 135°07'3 5.7
2017-Sep-16 03:30N 34°38' E 135°10'3 5.5
2017-Sep-16 03:00N 34°41' E 135°11'0 0.0
2017-Sep-16 02:30N 34°41' E 135°11'0 0.0
2017-Sep-16 02:00N 34°41' E 135°11'0 0.0
2017-Sep-16 01:26N 34°41' E 135°11'0 0.0
2017-Sep-16 00:50N 34°41' E 135°11'0 0.0
2017-Sep-16 00:26N 34°41' E 135°11'0 0.0
2017-Sep-15 23:56N 34°41' E 135°11'0 0.0
2017-Sep-15 23:26N 34°41' E 135°11'0 0.0
2017-Sep-15 22:56N 34°41' E 135°11'0 0.0
2017-Sep-15 22:26N 34°41' E 135°11'0 0.0
2017-Sep-15 21:56N 34°41' E 135°11'0 0.0
2017-Sep-15 21:13N 34°41' E 135°11'0 0.0
2017-Sep-15 20:50N 34°41' E 135°11'0 0.0
2017-Sep-15 20:26N 34°41' E 135°11'0 0.0
2017-Sep-15 19:56N 34°41' E 135°11'0 0.0
2017-Sep-15 19:26N 34°41' E 135°11'0 0.0
2017-Sep-15 18:56N 34°41' E 135°11'0 0.0
2017-Sep-15 18:25N 34°41' E 135°11'0 0.0
2017-Sep-15 17:56N 34°41' E 135°11'0 0.0
2017-Sep-15 17:20N 34°41' E 135°11'0 0.0
2017-Sep-15 16:56N 34°41' E 135°11'0 0.0
2017-Sep-15 16:26N 34°41' E 135°11'0 0.0
2017-Sep-15 15:38N 34°41' E 135°11'0 0.0
2017-Sep-15 15:26N 34°41' E 135°11'0 0.0
2017-Sep-15 14:56N 34°41' E 135°11'0 0.0
2017-Sep-15 14:26N 34°41' E 135°11'0 0.0
2017-Sep-15 13:56N 34°41' E 135°11'0 0.0
2017-Sep-15 13:26N 34°41' E 135°11'0 0.0
2017-Sep-15 12:56N 34°41' E 135°11'0 0.0
2017-Sep-15 12:26N 34°41' E 135°11'0 0.4
2017-Sep-15 12:00N 34°41' E 135°11'4 7.0
2017-Sep-15 11:30N 34°37' E 135°10'4 7.8
2017-Sep-15 11:00N 34°37' E 135°05'4 7.8
2017-Sep-15 10:31N 34°38' E 135°10'3 5.8
2017-Sep-15 10:00N 34°41' E 135°11'0 0.0
2017-Sep-15 09:30N 34°41' E 135°11'3 6.5
2017-Sep-15 09:00N 34°38' E 135°09'2 4.6
2017-Sep-15 08:30N 34°37' E 135°07'4 9.0
2017-Sep-15 08:00N 34°40' E 135°11'1 2.0
2017-Sep-15 07:22N 34°41' E 135°11'0 0.0
2017-Sep-15 06:58N 34°41' E 135°11'3 5.8
2017-Sep-15 06:30N 34°38' E 135°11'1 2.2
2017-Sep-15 06:00N 34°38' E 135°10'3 6.4
2017-Sep-15 05:30N 34°41' E 135°11'0 0.0
2017-Sep-15 04:56N 34°41' E 135°11'2 5.2
2017-Sep-15 04:30N 34°39' E 135°11'4 7.9
2017-Sep-15 04:00N 34°37' E 135°07'3 5.0
2017-Sep-15 03:30N 34°38' E 135°10'3 6.5
2017-Sep-15 03:00N 34°41' E 135°11'0 0.1
2017-Sep-15 02:30N 34°41' E 135°11'0 0.0
2017-Sep-15 01:59N 34°41' E 135°11'0 0.0
2017-Sep-15 01:29N 34°41' E 135°11'0 0.0
2017-Sep-15 00:59N 34°41' E 135°11'0 0.0
2017-Sep-15 00:29N 34°41' E 135°11'0 0.0
2017-Sep-14 23:53N 34°41' E 135°11'0 0.0
2017-Sep-14 23:23N 34°41' E 135°11'0 0.0
2017-Sep-14 22:59N 34°41' E 135°11'0 0.0
2017-Sep-14 22:29N 34°41' E 135°11'0 0.0
2017-Sep-14 21:59N 34°41' E 135°11'0 0.0
2017-Sep-14 21:29N 34°41' E 135°11'0 0.0
2017-Sep-14 20:59N 34°41' E 135°11'0 0.0
2017-Sep-14 20:29N 34°41' E 135°11'0 0.0
2017-Sep-14 19:59N 34°41' E 135°11'0 0.0
2017-Sep-14 19:23N 34°41' E 135°11'0 0.0
2017-Sep-14 18:59N 34°41' E 135°11'0 0.0
2017-Sep-14 18:29N 34°41' E 135°11'0 0.0
2017-Sep-14 17:59N 34°41' E 135°11'0 0.0
2017-Sep-14 17:23N 34°41' E 135°11'0 0.0
2017-Sep-14 16:53N 34°41' E 135°11'0 0.0
2017-Sep-14 16:17N 34°41' E 135°11'0 0.0
2017-Sep-14 15:59N 34°41' E 135°11'0 0.0
2017-Sep-14 15:29N 34°41' E 135°11'0 0.0
2017-Sep-14 14:59N 34°41' E 135°11'0 0.0
2017-Sep-14 14:29N 34°41' E 135°11'0 0.0
2017-Sep-14 13:47N 34°41' E 135°11'0 0.0
2017-Sep-14 13:17N 34°41' E 135°11'0 0.0
2017-Sep-14 12:59N 34°41' E 135°11'0 0.0
2017-Sep-14 12:29N 34°41' E 135°11'0 0.0
2017-Sep-14 12:00N 34°41' E 135°11'4 7.1
2017-Sep-14 11:30N 34°37' E 135°10'3 6.2
2017-Sep-14 11:00N 34°37' E 135°06'3 6.2
2017-Sep-14 10:30N 34°38' E 135°10'3 6.3
2017-Sep-14 10:00N 34°41' E 135°11'0 0.0
2017-Sep-14 09:30N 34°41' E 135°11'2 4.7
2017-Sep-14 09:00N 34°38' E 135°11'4 7.4
2017-Sep-14 08:30N 34°37' E 135°07'4 8.2
2017-Sep-14 08:00N 34°40' E 135°11'1 2.4
2017-Sep-14 07:28N 34°41' E 135°11'0 0.0
2017-Sep-14 06:58N 34°41' E 135°11'3 6.0
2017-Sep-14 06:30N 34°38' E 135°11'1 2.7
2017-Sep-14 06:00N 34°38' E 135°09'3 6.4
2017-Sep-14 05:30N 34°41' E 135°11'0 0.0
2017-Sep-14 04:58N 34°41' E 135°11'2 4.0
2017-Sep-14 04:30N 34°39' E 135°11'4 7.3
2017-Sep-14 04:00N 34°37' E 135°07'2 4.3
2017-Sep-14 03:30N 34°38' E 135°10'3 5.7
2017-Sep-14 03:00N 34°41' E 135°11'0 0.0
2017-Sep-14 02:30N 34°41' E 135°11'0 0.0
2017-Sep-14 01:50N 34°41' E 135°11'0 0.0
2017-Sep-14 01:14N 34°41' E 135°11'0 0.0
2017-Sep-14 00:50N 34°41' E 135°11'0 0.0
2017-Sep-14 00:26N 34°41' E 135°11'0 0.0
2017-Sep-13 23:44N 34°41' E 135°11'0 0.0
2017-Sep-13 23:26N 34°41' E 135°11'0 0.0
2017-Sep-13 22:56N 34°41' E 135°11'0 0.0
2017-Sep-13 22:20N 34°41' E 135°11'0 0.0
2017-Sep-13 21:56N 34°41' E 135°11'0 0.0
2017-Sep-13 21:20N 34°41' E 135°11'0 0.0
2017-Sep-13 20:56N 34°41' E 135°11'0 0.0
2017-Sep-13 20:26N 34°41' E 135°11'0 0.0
2017-Sep-13 19:50N 34°41' E 135°11'0 0.0
2017-Sep-13 19:26N 34°41' E 135°11'0 0.0
2017-Sep-13 18:50N 34°41' E 135°11'0 0.0
2017-Sep-13 18:26N 34°41' E 135°11'0 0.0
2017-Sep-13 17:59N 34°41' E 135°11'0 0.0
2017-Sep-13 17:29N 34°41' E 135°11'0 0.0
2017-Sep-13 16:59N 34°41' E 135°11'0 0.0
2017-Sep-13 16:29N 34°41' E 135°11'0 0.0
2017-Sep-13 15:59N 34°41' E 135°11'0 0.0
2017-Sep-13 15:23N 34°41' E 135°11'0 0.0
2017-Sep-13 14:59N 34°41' E 135°11'0 0.0
2017-Sep-13 14:29N 34°41' E 135°11'0 0.0
2017-Sep-13 13:59N 34°41' E 135°11'0 0.0
2017-Sep-13 13:29N 34°41' E 135°11'0 0.0
2017-Sep-13 12:59N 34°41' E 135°11'0 0.0
2017-Sep-13 12:29N 34°41' E 135°11'0 0.4
2017-Sep-13 12:01N 34°41' E 135°11'4 7.1
2017-Sep-13 11:30N 34°37' E 135°10'4 7.7
2017-Sep-13 11:00N 34°36' E 135°05'4 8.0
2017-Sep-13 10:31N 34°38' E 135°09'3 6.0
2017-Sep-13 10:01N 34°41' E 135°11'0 0.0
2017-Sep-13 09:26N 34°41' E 135°11'3 5.9
2017-Sep-13 09:00N 34°38' E 135°11'3 6.8
2017-Sep-13 08:30N 34°37' E 135°07'4 8.2
2017-Sep-13 08:00N 34°40' E 135°11'1 2.4
2017-Sep-13 07:29N 34°41' E 135°11'0 0.0
2017-Sep-13 06:59N 34°41' E 135°11'2 5.2
2017-Sep-13 06:30N 34°38' E 135°11'1 2.5
2017-Sep-13 06:00N 34°38' E 135°09'3 6.4
2017-Sep-13 05:30N 34°41' E 135°11'0 0.1
2017-Sep-13 04:50N 34°41' E 135°11'2 5.7
2017-Sep-13 04:30N 34°39' E 135°11'4 7.1
2017-Sep-13 04:00N 34°37' E 135°08'2 4.2
2017-Sep-13 03:30N 34°38' E 135°10'3 5.5
2017-Sep-13 03:00N 34°41' E 135°11'0 0.0
2017-Sep-13 02:21N 34°41' E 135°11'0 0.0
2017-Sep-13 01:57N 34°41' E 135°11'0 0.0
2017-Sep-13 01:27N 34°41' E 135°11'0 0.0
2017-Sep-13 00:51N 34°41' E 135°11'0 0.0
2017-Sep-13 00:21N 34°41' E 135°11'0 0.0
2017-Sep-12 23:51N 34°41' E 135°11'0 0.0
2017-Sep-12 23:27N 34°41' E 135°11'0 0.0
2017-Sep-12 22:57N 34°41' E 135°11'0 0.0
2017-Sep-12 22:27N 34°41' E 135°11'0 0.0
2017-Sep-12 21:57N 34°41' E 135°11'0 0.0
2017-Sep-12 21:21N 34°41' E 135°11'0 0.0
2017-Sep-12 20:57N 34°41' E 135°11'0 0.0
2017-Sep-12 20:27N 34°41' E 135°11'0 0.0
2017-Sep-12 19:57N 34°41' E 135°11'0 0.0
2017-Sep-12 19:21N 34°41' E 135°11'0 0.0
2017-Sep-12 18:57N 34°41' E 135°11'0 0.0
2017-Sep-12 18:27N 34°41' E 135°11'0 0.0
2017-Sep-12 17:45N 34°41' E 135°11'0 0.0
2017-Sep-12 17:15N 34°41' E 135°11'0 0.0
2017-Sep-12 16:51N 34°41' E 135°11'0 0.0
2017-Sep-12 16:27N 34°41' E 135°11'0 0.0
2017-Sep-12 15:57N 34°41' E 135°11'0 0.0
2017-Sep-12 15:27N 34°41' E 135°11'0 0.0
2017-Sep-12 14:57N 34°41' E 135°11'0 0.0
2017-Sep-12 14:21N 34°41' E 135°11'0 0.0
2017-Sep-12 13:57N 34°41' E 135°11'0 0.0
2017-Sep-12 13:27N 34°41' E 135°11'0 0.0
2017-Sep-12 12:57N 34°41' E 135°11'0 0.0
2017-Sep-12 12:27N 34°41' E 135°11'0 0.2
2017-Sep-12 12:00N 34°41' E 135°11'3 6.9
2017-Sep-12 11:30N 34°38' E 135°10'4 7.5
2017-Sep-12 11:00N 34°37' E 135°05'4 8.3
2017-Sep-12 10:30N 34°38' E 135°10'3 6.1
2017-Sep-12 10:00N 34°41' E 135°11'0 0.0
2017-Sep-12 09:29N 34°41' E 135°11'3 6.4
2017-Sep-12 09:00N 34°38' E 135°10'1 2.7
2017-Sep-12 08:30N 34°37' E 135°09'4 7.2
2017-Sep-12 08:00N 34°40' E 135°11'1 1.5
2017-Sep-12 07:27N 34°41' E 135°11'0 0.0
2017-Sep-12 06:57N 34°41' E 135°11'3 6.3
2017-Sep-12 06:31N 34°38' E 135°10'1 1.1
2017-Sep-12 06:01N 34°38' E 135°10'3 6.2
2017-Sep-12 05:31N 34°41' E 135°11'0 0.0
2017-Sep-12 04:53N 34°41' E 135°11'2 4.4
2017-Sep-12 04:30N 34°39' E 135°11'4 7.2
2017-Sep-12 04:00N 34°37' E 135°07'2 4.6
2017-Sep-12 03:30N 34°38' E 135°10'3 5.2
2017-Sep-12 03:00N 34°41' E 135°11'0 0.0
2017-Sep-12 02:26N 34°41' E 135°11'0 0.0
2017-Sep-12 01:56N 34°41' E 135°11'0 0.0
2017-Sep-12 01:20N 34°41' E 135°11'0 0.0
2017-Sep-12 00:56N 34°41' E 135°11'0 0.0
2017-Sep-12 00:26N 34°41' E 135°11'0 0.0
2017-Sep-11 23:56N 34°41' E 135°11'0 0.0
2017-Sep-11 23:20N 34°41' E 135°11'0 0.0
2017-Sep-11 22:56N 34°41' E 135°11'0 0.0
2017-Sep-11 22:20N 34°41' E 135°11'0 0.0
2017-Sep-11 21:56N 34°41' E 135°11'0 0.0
2017-Sep-11 21:26N 34°41' E 135°11'0 0.0
2017-Sep-11 20:56N 34°41' E 135°11'0 0.0
2017-Sep-11 20:26N 34°41' E 135°11'0 0.0
2017-Sep-11 19:56N 34°41' E 135°11'0 0.0
2017-Sep-11 19:20N 34°41' E 135°11'0 0.0
2017-Sep-11 18:50N 34°41' E 135°11'0 0.0
2017-Sep-11 18:26N 34°41' E 135°11'0 0.0
2017-Sep-11 17:50N 34°41' E 135°11'0 0.0
2017-Sep-11 17:26N 34°41' E 135°11'0 0.0
2017-Sep-11 16:50N 34°41' E 135°11'0 0.0
2017-Sep-11 16:20N 34°41' E 135°11'0 0.0
2017-Sep-11 15:56N 34°41' E 135°11'0 0.0
2017-Sep-11 15:20N 34°41' E 135°11'0 0.0
2017-Sep-11 14:56N 34°41' E 135°11'0 0.0
2017-Sep-11 14:26N 34°41' E 135°11'0 0.0
2017-Sep-11 13:56N 34°41' E 135°11'0 0.0
2017-Sep-11 13:20N 34°41' E 135°11'0 0.0
2017-Sep-11 12:56N 34°41' E 135°11'0 0.0
2017-Sep-11 12:26N 34°41' E 135°11'1 1.2
2017-Sep-11 12:00N 34°40' E 135°11'1 2.5
2017-Sep-11 11:30N 34°39' E 135°11'3 5.3
2017-Sep-11 11:00N 34°38' E 135°09'1 2.5
2017-Sep-11 10:30N 34°38' E 135°10'3 5.5
2017-Sep-11 10:00N 34°41' E 135°11'0 0.0
2017-Sep-11 09:30N 34°41' E 135°11'3 5.6
2017-Sep-11 09:00N 34°38' E 135°10'1 2.3
2017-Sep-11 08:30N 34°38' E 135°09'3 5.7
2017-Sep-11 08:00N 34°39' E 135°11'1 1.5
2017-Sep-11 07:05N 34°41' E 135°11'0 0.0
2017-Sep-11 06:59N 34°41' E 135°11'3 5.3
2017-Sep-11 06:30N 34°38' E 135°11'1 2.3
2017-Sep-11 06:00N 34°38' E 135°10'3 6.1
2017-Sep-11 05:30N 34°41' E 135°11'0 0.0
2017-Sep-11 04:55N 34°41' E 135°11'2 4.3
2017-Sep-11 04:30N 34°39' E 135°11'4 7.3
2017-Sep-11 04:00N 34°37' E 135°07'2 3.6
2017-Sep-11 03:30N 34°38' E 135°09'3 6.1
2017-Sep-11 03:00N 34°41' E 135°11'  
Track history (hours):
 
Tides and Currents Weather Stations Pressure Air Temp Water Temp Dewpoint Dewpoint Depression Visibility Wind Speed Wind Dir Waves Ship Positions

Concerto

Last reported at 2017-Sep-21 03:00 UTC. Time now 2017-Sep-21 03:07 UTC.
Position N 34°41' E 135°11'.

Length 74 m; draft 3 m.

Type: Passenger vessel. MMSI: 431000448.

Date/timePositionNaut miles runAvg speedWind from/ knotsBaromVisibWave heightAir tempDewpointWater temp
2017-Sep-21 03:00N 34°41' E 135°11'0 0.0
2017-Sep-21 02:30N 34°41' E 135°11'0 0.0
2017-Sep-21 02:00N 34°41' E 135°11'0 0.0
2017-Sep-21 01:25N 34°41' E 135°11'0 0.0
2017-Sep-21 01:01N 34°41' E 135°11'0 0.0
2017-Sep-21 00:31N 34°41' E 135°11'0 0.0
2017-Sep-21 00:00N 34°41' E 135°11'0 0.0
2017-Sep-20 23:31N 34°41' E 135°11'0 0.0
2017-Sep-20 22:49N 34°41' E 135°11'0 0.0
2017-Sep-20 22:30N 34°41' E 135°11'0 0.0
2017-Sep-20 22:00N 34°41' E 135°11'0 0.0
2017-Sep-20 21:24N 34°41' E 135°11'0 0.0
2017-Sep-20 21:00N 34°41' E 135°11'0 0.0
2017-Sep-20 20:30N 34°41' E 135°11'0 0.0
2017-Sep-20 20:00N 34°41' E 135°11'0 0.0
2017-Sep-20 19:30N 34°41' E 135°11'0 0.0
2017-Sep-20 18:49N 34°41' E 135°11'0 0.0
2017-Sep-20 18:30N 34°41' E 135°11'0 0.0
2017-Sep-20 18:00N 34°41' E 135°11'0 0.0
2017-Sep-20 17:25N 34°41' E 135°11'0 0.0
2017-Sep-20 17:00N 34°41' E 135°11'0 0.0
2017-Sep-20 16:30N 34°41' E 135°11'0 0.0
2017-Sep-20 16:01N 34°41' E 135°11'0 0.0
2017-Sep-20 15:24N 34°41' E 135°11'0 0.0
2017-Sep-20 14:54N 34°41' E 135°11'0 0.0
2017-Sep-20 14:00N 34°41' E 135°11'0 0.0
2017-Sep-20 13:30N 34°41' E 135°11'0 0.0
2017-Sep-20 13:00N 34°41' E 135°11'0 0.0
2017-Sep-20 12:30N 34°41' E 135°11'0 0.1
2017-Sep-20 12:00N 34°41' E 135°11'3 6.5
2017-Sep-20 11:30N 34°38' E 135°10'3 6.1
2017-Sep-20 11:00N 34°37' E 135°06'3 5.7
2017-Sep-20 10:30N 34°38' E 135°10'3 6.3
2017-Sep-20 10:00N 34°41' E 135°11'0 0.0
2017-Sep-20 09:29N 34°41' E 135°11'2 4.4
2017-Sep-20 09:00N 34°39' E 135°11'3 6.9
2017-Sep-20 08:30N 34°37' E 135°07'4 8.0
2017-Sep-20 08:00N 34°40' E 135°11'1 2.2
2017-Sep-20 07:26N 34°41' E 135°11'0 0.0
2017-Sep-20 06:56N 34°41' E 135°11'3 6.0
2017-Sep-20 06:30N 34°38' E 135°11'1 1.8
2017-Sep-20 06:00N 34°38' E 135°10'3 5.9
2017-Sep-20 05:30N 34°41' E 135°11'0 0.0
2017-Sep-20 04:50N 34°41' E 135°11'2 6.0
2017-Sep-20 04:31N 34°39' E 135°11'4 8.2
2017-Sep-20 04:01N 34°37' E 135°07'3 5.3
2017-Sep-20 03:31N 34°38' E 135°10'3 5.4
2017-Sep-20 03:00N 34°41' E 135°11'0 0.0
2017-Sep-20 02:27N 34°41' E 135°11'0 0.0
2017-Sep-20 01:57N 34°41' E 135°11'0 0.0
2017-Sep-20 01:27N 34°41' E 135°11'0 0.0
2017-Sep-20 00:57N 34°41' E 135°11'0 0.0
2017-Sep-20 00:27N 34°41' E 135°11'0 0.0
2017-Sep-19 23:57N 34°41' E 135°11'0 0.0
2017-Sep-19 23:27N 34°41' E 135°11'0 0.0
2017-Sep-19 22:57N 34°41' E 135°11'0 0.0
2017-Sep-19 22:27N 34°41' E 135°11'0 0.0
2017-Sep-19 21:57N 34°41' E 135°11'0 0.0
2017-Sep-19 21:27N 34°41' E 135°11'0 0.0
2017-Sep-19 20:57N 34°41' E 135°11'0 0.0
2017-Sep-19 20:27N 34°41' E 135°11'0 0.0
2017-Sep-19 19:57N 34°41' E 135°11'0 0.0
2017-Sep-19 19:27N 34°41' E 135°11'0 0.0
2017-Sep-19 18:51N 34°41' E 135°11'0 0.0
2017-Sep-19 18:27N 34°41' E 135°11'0 0.0
2017-Sep-19 17:57N 34°41' E 135°11'0 0.0
2017-Sep-19 17:27N 34°41' E 135°11'0 0.0
2017-Sep-19 16:57N 34°41' E 135°11'0 0.0
2017-Sep-19 16:27N 34°41' E 135°11'0 0.0
2017-Sep-19 15:51N 34°41' E 135°11'0 0.0
2017-Sep-19 15:27N 34°41' E 135°11'0 0.0
2017-Sep-19 14:57N 34°41' E 135°11'0 0.0
2017-Sep-19 14:03N 34°41' E 135°11'0 0.0
2017-Sep-19 13:57N 34°41' E 135°11'0 0.0
2017-Sep-19 13:27N 34°41' E 135°11'0 0.0
2017-Sep-19 12:57N 34°41' E 135°11'0 0.0
2017-Sep-19 12:07N 34°41' E 135°11'0 2.6
2017-Sep-19 12:00N 34°41' E 135°11'4 7.1
2017-Sep-19 11:30N 34°37' E 135°09'4 8.1
2017-Sep-19 11:01N 34°37' E 135°05'4 8.3
2017-Sep-19 10:30N 34°38' E 135°09'3 6.0
2017-Sep-19 10:00N 34°41' E 135°11'0 0.0
2017-Sep-19 09:28N 34°41' E 135°11'3 6.2
2017-Sep-19 09:00N 34°38' E 135°11'3 5.6
2017-Sep-19 08:30N 34°37' E 135°08'4 8.0
2017-Sep-19 08:00N 34°39' E 135°11'1 2.4
2017-Sep-19 07:26N 34°41' E 135°11'0 0.0
2017-Sep-19 06:53N 34°41' E 135°11'3 7.0
2017-Sep-19 06:30N 34°38' E 135°11'1 2.3
2017-Sep-19 06:00N 34°38' E 135°10'3 5.5
2017-Sep-19 05:30N 34°41' E 135°11'0 0.0
2017-Sep-19 04:58N 34°41' E 135°11'2 3.6
2017-Sep-19 04:30N 34°39' E 135°11'4 7.0
2017-Sep-19 04:00N 34°37' E 135°08'2 4.0
2017-Sep-19 03:30N 34°38' E 135°10'3 5.7
2017-Sep-19 03:00N 34°41' E 135°11'0 0.0
2017-Sep-19 02:26N 34°41' E 135°11'0 0.0
2017-Sep-19 01:32N 34°41' E 135°11'0 0.0
2017-Sep-19 01:26N 34°41' E 135°11'0 0.0
2017-Sep-19 00:56N 34°41' E 135°11'0 0.0
2017-Sep-19 00:26N 34°41' E 135°11'0 0.0
2017-Sep-18 23:56N 34°41' E 135°11'0 0.0
2017-Sep-18 23:26N 34°41' E 135°11'0 0.0
2017-Sep-18 22:56N 34°41' E 135°11'0 0.0
2017-Sep-18 22:20N 34°41' E 135°11'0 0.0
2017-Sep-18 21:56N 34°41' E 135°11'0 0.0
2017-Sep-18 20:32N 34°41' E 135°11'0 0.0
2017-Sep-18 20:20N 34°41' E 135°11'0 0.0
2017-Sep-18 19:56N 34°41' E 135°11'0 0.0
2017-Sep-18 19:26N 34°41' E 135°11'0 0.0
2017-Sep-18 18:56N 34°41' E 135°11'0 0.0
2017-Sep-18 18:26N 34°41' E 135°11'0 0.0
2017-Sep-18 17:56N 34°41' E 135°11'0 0.0
2017-Sep-18 17:26N 34°41' E 135°11'0 0.0
2017-Sep-18 16:56N 34°41' E 135°11'0 0.0
2017-Sep-18 16:26N 34°41' E 135°11'0 0.0
2017-Sep-18 15:56N 34°41' E 135°11'0 0.0
2017-Sep-18 15:26N 34°41' E 135°11'0 0.0
2017-Sep-18 14:56N 34°41' E 135°11'0 0.0
2017-Sep-18 14:20N 34°41' E 135°11'0 0.0
2017-Sep-18 13:56N 34°41' E 135°11'0 0.0
2017-Sep-18 13:26N 34°41' E 135°11'0 0.0
2017-Sep-18 12:56N 34°41' E 135°11'0 0.0
2017-Sep-18 12:26N 34°41' E 135°11'0 0.4
2017-Sep-18 12:00N 34°41' E 135°11'4 7.2
2017-Sep-18 11:30N 34°37' E 135°09'4 7.3
2017-Sep-18 11:01N 34°37' E 135°05'4 7.4
2017-Sep-18 10:30N 34°38' E 135°09'3 6.5
2017-Sep-18 10:01N 34°41' E 135°11'0 0.0
2017-Sep-18 09:26N 34°41' E 135°11'2 5.4
2017-Sep-18 09:01N 34°39' E 135°11'4 7.3
2017-Sep-18 08:31N 34°37' E 135°07'4 8.2
2017-Sep-18 08:01N 34°39' E 135°11'1 2.7
2017-Sep-18 07:28N 34°41' E 135°11'0 0.0
2017-Sep-18 06:56N 34°41' E 135°11'3 6.5
2017-Sep-18 06:30N 34°38' E 135°11'1 1.2
2017-Sep-18 06:00N 34°38' E 135°10'3 6.1
2017-Sep-18 05:30N 34°41' E 135°11'0 0.0
2017-Sep-18 05:00N 34°41' E 135°11'2 4.0
2017-Sep-18 04:30N 34°39' E 135°11'4 7.7
2017-Sep-18 04:00N 34°37' E 135°07'2 4.9
2017-Sep-18 03:30N 34°38' E 135°10'3 5.6
2017-Sep-18 03:00N 34°41' E 135°11'0 0.0
2017-Sep-18 02:22N 34°41' E 135°11'0 0.0
2017-Sep-18 01:46N 34°41' E 135°11'0 0.0
2017-Sep-18 01:28N 34°41' E 135°11'0 0.0
2017-Sep-18 00:52N 34°41' E 135°11'0 0.0
2017-Sep-18 00:28N 34°41' E 135°11'0 0.0
2017-Sep-17 23:58N 34°41' E 135°11'0 0.0
2017-Sep-17 23:28N 34°41' E 135°11'0 0.0
2017-Sep-17 22:56N 34°41' E 135°11'2 5.5
2017-Sep-17 22:30N 34°38' E 135°11'4 7.9
2017-Sep-17 22:00N 34°35' E 135°13'4 7.2
2017-Sep-17 21:30N 34°32' E 135°15'4 7.6
2017-Sep-17 21:00N 34°28' E 135°16'1 0.9
2017-Sep-17 20:06N 34°28' E 135°17'0 0.0
2017-Sep-17 18:57N 34°28' E 135°17'0 0.0
2017-Sep-17 17:41N 34°28' E 135°17'0 0.0
2017-Sep-17 16:23N 34°28' E 135°17'0 0.1
2017-Sep-17 15:53N 34°28' E 135°17'0 0.0
2017-Sep-17 15:23N 34°28' E 135°17'0 0.0
2017-Sep-17 14:35N 34°28' E 135°17'0 0.0
2017-Sep-17 14:17N 34°28' E 135°17'0 0.0
2017-Sep-17 12:05N 34°28' E 135°17'0 0.1
2017-Sep-17 11:41N 34°28' E 135°17'0 0.2
2017-Sep-17 11:17N 34°27' E 135°17'0 0.0
2017-Sep-17 10:53N 34°27' E 135°17'0 0.0
2017-Sep-17 10:29N 34°27' E 135°17'0 0.0
2017-Sep-17 09:59N 34°27' E 135°17'0 0.0
2017-Sep-17 09:30N 34°27' E 135°17'0 0.0
2017-Sep-17 08:59N 34°27' E 135°17'0 0.0
2017-Sep-17 08:17N 34°27' E 135°17'0 0.1
2017-Sep-17 07:59N 34°27' E 135°17'0 0.0
2017-Sep-17 07:29N 34°27' E 135°17'0 0.0
2017-Sep-17 06:59N 34°27' E 135°17'0 0.0
2017-Sep-17 06:29N 34°27' E 135°17'0 0.0
2017-Sep-17 05:51N 34°27' E 135°17'0 0.0
2017-Sep-17 05:29N 34°27' E 135°17'0 0.0
2017-Sep-17 04:59N 34°27' E 135°17'0 0.0
2017-Sep-17 04:29N 34°27' E 135°17'0 0.0
2017-Sep-17 03:59N 34°27' E 135°17'0 0.0
2017-Sep-17 03:29N 34°27' E 135°17'0 0.0
2017-Sep-17 02:59N 34°27' E 135°17'0 0.0
2017-Sep-17 02:23N 34°27' E 135°17'0 0.0
2017-Sep-17 01:59N 34°27' E 135°17'0 0.0
2017-Sep-17 01:23N 34°27' E 135°17'0 0.0
2017-Sep-17 00:59N 34°27' E 135°17'0 0.0
2017-Sep-17 00:23N 34°27' E 135°17'0 0.0
2017-Sep-16 23:59N 34°27' E 135°17'0 0.0
2017-Sep-16 23:29N 34°27' E 135°17'0 0.0
2017-Sep-16 22:54N 34°27' E 135°17'0 0.0
2017-Sep-16 22:23N 34°27' E 135°17'0 0.1
2017-Sep-16 21:59N 34°27' E 135°17'0 0.0
2017-Sep-16 21:29N 34°27' E 135°17'0 0.0
2017-Sep-16 20:59N 34°27' E 135°17'0 0.0
2017-Sep-16 20:29N 34°27' E 135°17'0 0.0
2017-Sep-16 19:59N 34°27' E 135°17'0 0.0
2017-Sep-16 19:29N 34°27' E 135°17'0 0.0
2017-Sep-16 18:47N 34°27' E 135°17'0 0.0
2017-Sep-16 18:24N 34°27' E 135°17'0 0.0
2017-Sep-16 17:59N 34°27' E 135°17'0 0.0
2017-Sep-16 17:29N 34°27' E 135°17'0 0.0
2017-Sep-16 16:53N 34°27' E 135°17'0 0.0
2017-Sep-16 16:29N 34°27' E 135°17'0 0.0
2017-Sep-16 15:59N 34°27' E 135°17'0 0.0
2017-Sep-16 15:30N 34°27' E 135°17'0 0.2
2017-Sep-16 14:59N 34°28' E 135°17'3 5.3
2017-Sep-16 14:30N 34°29' E 135°14'510.3
2017-Sep-16 14:00N 34°34' E 135°12'510.3
2017-Sep-16 13:30N 34°39' E 135°11'2 3.0
2017-Sep-16 12:57N 34°41' E 135°11'0 0.0
2017-Sep-16 12:27N 34°41' E 135°11'0 0.0
2017-Sep-16 12:00N 34°41' E 135°11'3 5.2
2017-Sep-16 11:30N 34°38' E 135°10'4 8.1
2017-Sep-16 11:00N 34°37' E 135°06'4 7.4
2017-Sep-16 10:30N 34°38' E 135°10'3 5.7
2017-Sep-16 10:00N 34°41' E 135°11'0 0.0
2017-Sep-16 09:27N 34°41' E 135°11'3 6.1
2017-Sep-16 09:00N 34°38' E 135°11'2 3.9
2017-Sep-16 08:30N 34°38' E 135°08'4 8.0
2017-Sep-16 08:00N 34°40' E 135°12'1 1.5
2017-Sep-16 07:30N 34°41' E 135°11'0 0.0
2017-Sep-16 07:00N 34°41' E 135°11'2 4.5
2017-Sep-16 06:30N 34°39' E 135°11'1 2.4
2017-Sep-16 06:00N 34°38' E 135°10'3 6.0
2017-Sep-16 05:30N 34°41' E 135°11'0 0.0
2017-Sep-16 04:53N 34°41' E 135°11'2 5.5
2017-Sep-16 04:30N 34°39' E 135°11'4 7.5
2017-Sep-16 04:00N 34°37' E 135°07'3 5.7
2017-Sep-16 03:30N 34°38' E 135°10'3 5.5
2017-Sep-16 03:00N 34°41' E 135°11'0 0.0
2017-Sep-16 02:30N 34°41' E 135°11'0 0.0
2017-Sep-16 02:00N 34°41' E 135°11'0 0.0
2017-Sep-16 01:26N 34°41' E 135°11'0 0.0
2017-Sep-16 00:50N 34°41' E 135°11'0 0.0
2017-Sep-16 00:26N 34°41' E 135°11'0 0.0
2017-Sep-15 23:56N 34°41' E 135°11'0 0.0
2017-Sep-15 23:26N 34°41' E 135°11'0 0.0
2017-Sep-15 22:56N 34°41' E 135°11'0 0.0
2017-Sep-15 22:26N 34°41' E 135°11'0 0.0
2017-Sep-15 21:56N 34°41' E 135°11'0 0.0
2017-Sep-15 21:13N 34°41' E 135°11'0 0.0
2017-Sep-15 20:50N 34°41' E 135°11'0 0.0
2017-Sep-15 20:26N 34°41' E 135°11'0 0.0
2017-Sep-15 19:56N 34°41' E 135°11'0 0.0
2017-Sep-15 19:26N 34°41' E 135°11'0 0.0
2017-Sep-15 18:56N 34°41' E 135°11'0 0.0
2017-Sep-15 18:25N 34°41' E 135°11'0 0.0
2017-Sep-15 17:56N 34°41' E 135°11'0 0.0
2017-Sep-15 17:20N 34°41' E 135°11'0 0.0
2017-Sep-15 16:56N 34°41' E 135°11'0 0.0
2017-Sep-15 16:26N 34°41' E 135°11'0 0.0
2017-Sep-15 15:38N 34°41' E 135°11'0 0.0
2017-Sep-15 15:26N 34°41' E 135°11'0 0.0
2017-Sep-15 14:56N 34°41' E 135°11'0 0.0
2017-Sep-15 14:26N 34°41' E 135°11'0 0.0
2017-Sep-15 13:56N 34°41' E 135°11'0 0.0
2017-Sep-15 13:26N 34°41' E 135°11'0 0.0
2017-Sep-15 12:56N 34°41' E 135°11'0 0.0
2017-Sep-15 12:26N 34°41' E 135°11'0 0.4
2017-Sep-15 12:00N 34°41' E 135°11'4 7.0
2017-Sep-15 11:30N 34°37' E 135°10'4 7.8
2017-Sep-15 11:00N 34°37' E 135°05'4 7.8
2017-Sep-15 10:31N 34°38' E 135°10'3 5.8
2017-Sep-15 10:00N 34°41' E 135°11'0 0.0
2017-Sep-15 09:30N 34°41' E 135°11'3 6.5
2017-Sep-15 09:00N 34°38' E 135°09'2 4.6
2017-Sep-15 08:30N 34°37' E 135°07'4 9.0
2017-Sep-15 08:00N 34°40' E 135°11'1 2.0
2017-Sep-15 07:22N 34°41' E 135°11'0 0.0
2017-Sep-15 06:58N 34°41' E 135°11'3 5.8
2017-Sep-15 06:30N 34°38' E 135°11'1 2.2
2017-Sep-15 06:00N 34°38' E 135°10'3 6.4
2017-Sep-15 05:30N 34°41' E 135°11'0 0.0
2017-Sep-15 04:56N 34°41' E 135°11'2 5.2
2017-Sep-15 04:30N 34°39' E 135°11'4 7.9
2017-Sep-15 04:00N 34°37' E 135°07'3 5.0
2017-Sep-15 03:30N 34°38' E 135°10'3 6.5
2017-Sep-15 03:00N 34°41' E 135°11'0 0.1
2017-Sep-15 02:30N 34°41' E 135°11'0 0.0
2017-Sep-15 01:59N 34°41' E 135°11'0 0.0
2017-Sep-15 01:29N 34°41' E 135°11'0 0.0
2017-Sep-15 00:59N 34°41' E 135°11'0 0.0
2017-Sep-15 00:29N 34°41' E 135°11'0 0.0
2017-Sep-14 23:53N 34°41' E 135°11'0 0.0
2017-Sep-14 23:23N 34°41' E 135°11'0 0.0
2017-Sep-14 22:59N 34°41' E 135°11'0 0.0
2017-Sep-14 22:29N 34°41' E 135°11'0 0.0
2017-Sep-14 21:59N 34°41' E 135°11'0 0.0
2017-Sep-14 21:29N 34°41' E 135°11'0 0.0
2017-Sep-14 20:59N 34°41' E 135°11'0 0.0
2017-Sep-14 20:29N 34°41' E 135°11'0 0.0
2017-Sep-14 19:59N 34°41' E 135°11'0 0.0
2017-Sep-14 19:23N 34°41' E 135°11'0 0.0
2017-Sep-14 18:59N 34°41' E 135°11'0 0.0
2017-Sep-14 18:29N 34°41' E 135°11'0 0.0
2017-Sep-14 17:59N 34°41' E 135°11'0 0.0
2017-Sep-14 17:23N 34°41' E 135°11'0 0.0
2017-Sep-14 16:53N 34°41' E 135°11'0 0.0
2017-Sep-14 16:17N 34°41' E 135°11'0 0.0
2017-Sep-14 15:59N 34°41' E 135°11'0 0.0
2017-Sep-14 15:29N 34°41' E 135°11'0 0.0
2017-Sep-14 14:59N 34°41' E 135°11'0 0.0
2017-Sep-14 14:29N 34°41' E 135°11'0 0.0
2017-Sep-14 13:47N 34°41' E 135°11'0 0.0
2017-Sep-14 13:17N 34°41' E 135°11'0 0.0
2017-Sep-14 12:59N 34°41' E 135°11'0 0.0
2017-Sep-14 12:29N 34°41' E 135°11'0 0.0
2017-Sep-14 12:00N 34°41' E 135°11'4 7.1
2017-Sep-14 11:30N 34°37' E 135°10'3 6.2
2017-Sep-14 11:00N 34°37' E 135°06'3 6.2
2017-Sep-14 10:30N 34°38' E 135°10'3 6.3
2017-Sep-14 10:00N 34°41' E 135°11'0 0.0
2017-Sep-14 09:30N 34°41' E 135°11'2 4.7
2017-Sep-14 09:00N 34°38' E 135°11'4 7.4
2017-Sep-14 08:30N 34°37' E 135°07'4 8.2
2017-Sep-14 08:00N 34°40' E 135°11'1 2.4
2017-Sep-14 07:28N 34°41' E 135°11'0 0.0
2017-Sep-14 06:58N 34°41' E 135°11'3 6.0
2017-Sep-14 06:30N 34°38' E 135°11'1 2.7
2017-Sep-14 06:00N 34°38' E 135°09'3 6.4
2017-Sep-14 05:30N 34°41' E 135°11'0 0.0
2017-Sep-14 04:58N 34°41' E 135°11'2 4.0
2017-Sep-14 04:30N 34°39' E 135°11'4 7.3
2017-Sep-14 04:00N 34°37' E 135°07'2 4.3
2017-Sep-14 03:30N 34°38' E 135°10'3 5.7
2017-Sep-14 03:00N 34°41' E 135°11'0 0.0
2017-Sep-14 02:30N 34°41' E 135°11'0 0.0
2017-Sep-14 01:50N 34°41' E 135°11'0 0.0
2017-Sep-14 01:14N 34°41' E 135°11'0 0.0
2017-Sep-14 00:50N 34°41' E 135°11'0 0.0
2017-Sep-14 00:26N 34°41' E 135°11'0 0.0
2017-Sep-13 23:44N 34°41' E 135°11'0 0.0
2017-Sep-13 23:26N 34°41' E 135°11'0 0.0
2017-Sep-13 22:56N 34°41' E 135°11'0 0.0
2017-Sep-13 22:20N 34°41' E 135°11'0 0.0
2017-Sep-13 21:56N 34°41' E 135°11'0 0.0
2017-Sep-13 21:20N 34°41' E 135°11'0 0.0
2017-Sep-13 20:56N 34°41' E 135°11'0 0.0
2017-Sep-13 20:26N 34°41' E 135°11'0 0.0
2017-Sep-13 19:50N 34°41' E 135°11'0 0.0
2017-Sep-13 19:26N 34°41' E 135°11'0 0.0
2017-Sep-13 18:50N 34°41' E 135°11'0 0.0
2017-Sep-13 18:26N 34°41' E 135°11'0 0.0
2017-Sep-13 17:59N 34°41' E 135°11'0 0.0
2017-Sep-13 17:29N 34°41' E 135°11'0 0.0
2017-Sep-13 16:59N 34°41' E 135°11'0 0.0
2017-Sep-13 16:29N 34°41' E 135°11'0 0.0
2017-Sep-13 15:59N 34°41' E 135°11'0 0.0
2017-Sep-13 15:23N 34°41' E 135°11'0 0.0
2017-Sep-13 14:59N 34°41' E 135°11'0 0.0
2017-Sep-13 14:29N 34°41' E 135°11'0 0.0
2017-Sep-13 13:59N 34°41' E 135°11'0 0.0
2017-Sep-13 13:29N 34°41' E 135°11'0 0.0
2017-Sep-13 12:59N 34°41' E 135°11'0 0.0
2017-Sep-13 12:29N 34°41' E 135°11'0 0.4
2017-Sep-13 12:01N 34°41' E 135°11'4 7.1
2017-Sep-13 11:30N 34°37' E 135°10'4 7.7
2017-Sep-13 11:00N 34°36' E 135°05'4 8.0
2017-Sep-13 10:31N 34°38' E 135°09'3 6.0
2017-Sep-13 10:01N 34°41' E 135°11'0 0.0
2017-Sep-13 09:26N 34°41' E 135°11'3 5.9
2017-Sep-13 09:00N 34°38' E 135°11'3 6.8
2017-Sep-13 08:30N 34°37' E 135°07'4 8.2
2017-Sep-13 08:00N 34°40' E 135°11'1 2.4
2017-Sep-13 07:29N 34°41' E 135°11'0 0.0
2017-Sep-13 06:59N 34°41' E 135°11'2 5.2
2017-Sep-13 06:30N 34°38' E 135°11'1 2.5
2017-Sep-13 06:00N 34°38' E 135°09'3 6.4
2017-Sep-13 05:30N 34°41' E 135°11'0 0.1
2017-Sep-13 04:50N 34°41' E 135°11'2 5.7
2017-Sep-13 04:30N 34°39' E 135°11'4 7.1
2017-Sep-13 04:00N 34°37' E 135°08'2 4.2
2017-Sep-13 03:30N 34°38' E 135°10'3 5.5
2017-Sep-13 03:00N 34°41' E 135°11'0 0.0
2017-Sep-13 02:21N 34°41' E 135°11'0 0.0
2017-Sep-13 01:57N 34°41' E 135°11'0 0.0
2017-Sep-13 01:27N 34°41' E 135°11'0 0.0
2017-Sep-13 00:51N 34°41' E 135°11'0 0.0
2017-Sep-13 00:21N 34°41' E 135°11'0 0.0
2017-Sep-12 23:51N 34°41' E 135°11'0 0.0
2017-Sep-12 23:27N 34°41' E 135°11'0 0.0
2017-Sep-12 22:57N 34°41' E 135°11'0 0.0
2017-Sep-12 22:27N 34°41' E 135°11'0 0.0
2017-Sep-12 21:57N 34°41' E 135°11'0 0.0
2017-Sep-12 21:21N 34°41' E 135°11'0 0.0
2017-Sep-12 20:57N 34°41' E 135°11'0 0.0
2017-Sep-12 20:27N 34°41' E 135°11'0 0.0
2017-Sep-12 19:57N 34°41' E 135°11'0 0.0
2017-Sep-12 19:21N 34°41' E 135°11'0 0.0
2017-Sep-12 18:57N 34°41' E 135°11'0 0.0
2017-Sep-12 18:27N 34°41' E 135°11'0 0.0
2017-Sep-12 17:45N 34°41' E 135°11'0 0.0
2017-Sep-12 17:15N 34°41' E 135°11'0 0.0
2017-Sep-12 16:51N 34°41' E 135°11'0 0.0
2017-Sep-12 16:27N 34°41' E 135°11'0 0.0
2017-Sep-12 15:57N 34°41' E 135°11'0 0.0
2017-Sep-12 15:27N 34°41' E 135°11'0 0.0
2017-Sep-12 14:57N 34°41' E 135°11'0 0.0
2017-Sep-12 14:21N 34°41' E 135°11'0 0.0
2017-Sep-12 13:57N 34°41' E 135°11'0 0.0
2017-Sep-12 13:27N 34°41' E 135°11'0 0.0
2017-Sep-12 12:57N 34°41' E 135°11'0 0.0
2017-Sep-12 12:27N 34°41' E 135°11'0 0.2
2017-Sep-12 12:00N 34°41' E 135°11'3 6.9
2017-Sep-12 11:30N 34°38' E 135°10'4 7.5
2017-Sep-12 11:00N 34°37' E 135°05'4 8.3
2017-Sep-12 10:30N 34°38' E 135°10'3 6.1
2017-Sep-12 10:00N 34°41' E 135°11'0 0.0
2017-Sep-12 09:29N 34°41' E 135°11'3 6.4
2017-Sep-12 09:00N 34°38' E 135°10'1 2.7
2017-Sep-12 08:30N 34°37' E 135°09'4 7.2
2017-Sep-12 08:00N 34°40' E 135°11'1 1.5
2017-Sep-12 07:27N 34°41' E 135°11'0 0.0
2017-Sep-12 06:57N 34°41' E 135°11'3 6.3
2017-Sep-12 06:31N 34°38' E 135°10'1 1.1
2017-Sep-12 06:01N 34°38' E 135°10'3 6.2
2017-Sep-12 05:31N 34°41' E 135°11'0 0.0
2017-Sep-12 04:53N 34°41' E 135°11'2 4.4
2017-Sep-12 04:30N 34°39' E 135°11'4 7.2
2017-Sep-12 04:00N 34°37' E 135°07'2 4.6
2017-Sep-12 03:30N 34°38' E 135°10'3 5.2
2017-Sep-12 03:00N 34°41' E 135°11'0 0.0
2017-Sep-12 02:26N 34°41' E 135°11'0 0.0
2017-Sep-12 01:56N 34°41' E 135°11'0 0.0
2017-Sep-12 01:20N 34°41' E 135°11'0 0.0
2017-Sep-12 00:56N 34°41' E 135°11'0 0.0
2017-Sep-12 00:26N 34°41' E 135°11'0 0.0
2017-Sep-11 23:56N 34°41' E 135°11'0 0.0
2017-Sep-11 23:20N 34°41' E 135°11'0 0.0
2017-Sep-11 22:56N 34°41' E 135°11'0 0.0
2017-Sep-11 22:20N 34°41' E 135°11'0 0.0
2017-Sep-11 21:56N 34°41' E 135°11'0 0.0
2017-Sep-11 21:26N 34°41' E 135°11'0 0.0
2017-Sep-11 20:56N 34°41' E 135°11'0 0.0
2017-Sep-11 20:26N 34°41' E 135°11'0 0.0
2017-Sep-11 19:56N 34°41' E 135°11'0 0.0
2017-Sep-11 19:20N 34°41' E 135°11'0 0.0
2017-Sep-11 18:50N 34°41' E 135°11'0 0.0
2017-Sep-11 18:26N 34°41' E 135°11'0 0.0
2017-Sep-11 17:50N 34°41' E 135°11'0 0.0
2017-Sep-11 17:26N 34°41' E 135°11'0 0.0
2017-Sep-11 16:50N 34°41' E 135°11'0 0.0
2017-Sep-11 16:20N 34°41' E 135°11'0 0.0
2017-Sep-11 15:56N 34°41' E 135°11'0 0.0
2017-Sep-11 15:20N 34°41' E 135°11'0 0.0
2017-Sep-11 14:56N 34°41' E 135°11'0 0.0
2017-Sep-11 14:26N 34°41' E 135°11'0 0.0
2017-Sep-11 13:56N 34°41' E 135°11'0 0.0
2017-Sep-11 13:20N 34°41' E 135°11'0 0.0
2017-Sep-11 12:56N 34°41' E 135°11'0 0.0
2017-Sep-11 12:26N 34°41' E 135°11'1 1.2
2017-Sep-11 12:00N 34°40' E 135°11'1 2.5
2017-Sep-11 11:30N 34°39' E 135°11'3 5.3
2017-Sep-11 11:00N 34°38' E 135°09'1 2.5
2017-Sep-11 10:30N 34°38' E 135°10'3 5.5
2017-Sep-11 10:00N 34°41' E 135°11'0 0.0
2017-Sep-11 09:30N 34°41' E 135°11'3 5.6
2017-Sep-11 09:00N 34°38' E 135°10'1 2.3
2017-Sep-11 08:30N 34°38' E 135°09'3 5.7
2017-Sep-11 08:00N 34°39' E 135°11'1 1.5
2017-Sep-11 07:05N 34°41' E 135°11'0 0.0
2017-Sep-11 06:59N 34°41' E 135°11'3 5.3
2017-Sep-11 06:30N 34°38' E 135°11'1 2.3
2017-Sep-11 06:00N 34°38' E 135°10'3 6.1
2017-Sep-11 05:30N 34°41' E 135°11'0 0.0
2017-Sep-11 04:55N 34°41' E 135°11'2 4.3
2017-Sep-11 04:30N 34°39' E 135°11'4 7.3
2017-Sep-11 04:00N 34°37' E 135°07'2 3.6
2017-Sep-11 03:30N 34°38' E 135°09'3 6.1
2017-Sep-11 03:00N 34°41' E 135°11'  

Dump ship's entire track history